Northleach, United Kingdom
Current Conditions -  °F | °C
As of 10:15 PM on Tuesday 25 Nov 2014 (Local Time) from EGVA Reporting Station
Light Rain Light Rain  
Wind Chill: 38°   Ceiling: 3000
Heat Index: 43°   Visibility: 5mi
Dew Point: 43°   Wind: 8mph
Humidity: 100%   Direction: 40°NE
Pressure: 30.02"   Gusts: NA
Location:  51.83°N, 1.84°W
Report Text: EGVA 252215Z AUTO 04007KT 8000 R27/1500 -RA BR OVC030 06/06 A3002 RMK AO2
Loading
Personal Weather Stations






























Interactive Weather Map New forecast layout! Learn more

10-Day Weather Forecast

Advertisements
Track Severe Weather on mobile